Flight Track Log - Related Links

Times and Time Zones

All times are in EDT time to prevent confusion due to time zone crossing. See the N502QS flight status page for this flight to view local times or setup timezone preferences in your user account.

Time Position Orientation Groundspeed Altitude Reporting Facility
EDT Latitude Longitude Course Direction KTS MPH feet Rate Location/Type
Tue 02:08:54 PM 44.7097 -68.7828 185° South 198 228 6,000  Level Boston Center
Tue 02:09:54 PM 44.6642 -68.8586 230° Southwest 189 217 8,400 2,350 Climbing Boston Center
Tue 02:10:54 PM 44.6164 -68.9372 230° Southwest 233 268 10,700 2,186 Climbing Boston Center
Tue 02:11:52 PM 44.5608 -69.0281 229° Southwest 271 312 12,700 2,085 Climbing Boston Center
Tue 02:12:52 PM 44.4953 -69.1367 230° Southwest 311 358 14,800 2,033 Climbing Boston Center
Tue 02:13:00 PM 44.3657 -69.5683 227° Southwest  Level FlightAware Approximate
Tue 02:13:53 PM 44.4314 -69.2392 229° Southwest 341 392 16,800  Level Boston Center
Tue 02:14:54 PM 44.3636 -69.3503 230° Southwest 361 415 19,000 2,100 Climbing Boston Center
Tue 02:15:53 PM 44.2936 -69.4611 229° Southwest 374 430 21,000 2,067 Climbing Boston Center
Tue 02:16:53 PM 44.2217 -69.5778 229° Southwest 387 445 23,100 2,033 Climbing Boston Center
Tue 02:17:54 PM 44.1644 -69.7136 240° Southwest 404 465 25,100 2,017 Climbing Boston Center
Tue 02:18:52 PM 44.1197 -69.8603 247° West 409 471 27,100 2,034 Climbing Boston Center
Tue 02:19:52 PM 44.0667 -70.0072 243° Southwest 415 478 29,100 1,983 Climbing Boston Center
Tue 02:20:53 PM 43.9900 -70.1258 228° Southwest 421 484 31,100 1,835 Climbing Boston Center
Tue 02:21:53 PM 43.9294 -70.2175 227° Southwest 416 479 32,800 2,033 Climbing Boston Center
Tue 02:22:54 PM 43.8339 -70.3564 226° Southwest 416 479 35,200 1,983 Climbing Boston Center
Tue 02:23:54 PM 43.7650 -70.4592 227° Southwest 416 479 36,800 1,831 Climbing Boston Center
Tue 02:24:52 PM 43.6897 -70.5653 226° Southwest 400 460 38,800 1,866 Climbing Boston Center
Tue 02:25:53 PM 43.6122 -70.6822 228° Southwest 393 452 40,500 1,339 Climbing Boston Center
Tue 02:26:53 PM 43.5408 -70.7903 228° Southwest 382 440 41,500 893 Climbing Boston Center
Tue 02:27:54 PM 43.4653 -70.8981 226° Southwest 387 445 42,300 645 Climbing Boston Center
Tue 02:28:54 PM 43.3897 -71.0086 227° Southwest 392 451 42,800 347 Climbing Boston Center
Tue 02:29:55 PM 43.3078 -71.1247 226° Southwest 404 465 43,000 101 Climbing Boston Center
Tue 02:30:53 PM 43.2256 -71.2433 226° Southwest 419 482 43,000  Level Boston Center
Tue 02:31:53 PM 43.1456 -71.3589 227° Southwest 424 488 43,000  Level Boston Center
Tue 02:32:54 PM 43.0714 -71.4681 227° Southwest 429 494 43,000  Level Boston Center
Tue 02:33:54 PM 42.9828 -71.5831 224° Southwest 418 481 43,000  Level Boston Center
Tue 02:34:52 PM 42.9044 -71.6947 226° Southwest 407 468 43,000  Level Boston Center
Tue 02:35:52 PM 42.8239 -71.8061 225° Southwest 407 468 43,000  Level Boston Center
Tue 02:36:53 PM 42.7453 -71.9172 226° Southwest 407 468 43,000  Level Boston Center
Tue 02:37:53 PM 42.6644 -72.0278 225° Southwest 407 468 43,000  Level Boston Center
Tue 02:38:54 PM 42.5833 -72.1383 225° Southwest 407 468 43,000  Level Boston Center
Tue 02:39:52 PM 42.5067 -72.2458 226° Southwest 407 468 43,000  Level Boston Center
Tue 02:40:52 PM 42.4317 -72.3389 222° Southwest 407 468 43,000  Level Boston Center
Tue 02:41:53 PM 42.3483 -72.4428 223° Southwest 407 468 43,000  Level Boston Center
Tue 02:42:53 PM 42.2567 -72.5636 224° Southwest 407 468 43,000  Level Boston Center
Tue 02:43:54 PM 42.1708 -72.6697 223° Southwest 412 474 43,000  Level Boston Center
Tue 02:44:54 PM 42.0894 -72.7758 224° Southwest 412 474 43,000  Level Boston Center
Tue 02:45:55 PM 42.0183 -72.8647 223° Southwest 406 467 43,000  Level Boston Center
Tue 02:46:52 PM 41.9364 -72.9703 224° Southwest 406 467 43,000  Level Boston Center
Tue 02:47:52 PM 41.8400 -73.0950 224° Southwest 425 489 43,000  Level Boston Center
Tue 02:48:53 PM 41.7558 -73.2025 224° Southwest 425 489 43,000  Level Boston Center
Tue 02:49:53 PM 41.6800 -73.3211 229° Southwest 419 482 43,000  Level Boston Center
Tue 02:50:54 PM 41.6061 -73.4394 230° Southwest 419 482 43,000  Level Boston Center
Tue 02:51:52 PM 41.5469 -73.5356 231° Southwest 419 482 43,000  Level Boston Center
Tue 02:54:10 PM 41.3700 -73.8233 231° Southwest 423 487 43,000  Level New York Center
Tue 02:55:10 PM 41.2961 -73.9414 230° Southwest 423 487 43,000  Level New York Center
Tue 02:56:10 PM 41.2261 -74.0650 233° Southwest 423 487 43,000  Level New York Center
Tue 02:57:10 PM 41.1497 -74.1878 230° Southwest 428 493 43,000  Level New York Center
Tue 02:58:10 PM 41.0733 -74.3022 228° Southwest 428 493 43,000  Level New York Center
Tue 02:59:10 PM 40.9986 -74.4278 232° Southwest 433 498 43,000  Level New York Center
Tue 03:00:10 PM 40.9261 -74.5472 231° Southwest 433 498 43,000  Level New York Center
Tue 03:01:10 PM 40.8494 -74.6692 230° Southwest 433 498 43,000  Level New York Center
Tue 03:02:10 PM 40.7764 -74.7939 232° Southwest 433 498 43,000  Level New York Center
Tue 03:03:10 PM 40.7014 -74.9125 230° Southwest 433 498 43,000  Level New York Center
Tue 03:04:10 PM 40.6264 -75.0339 231° Southwest 433 498 43,000  Level New York Center
Tue 03:05:10 PM 40.5511 -75.1547 231° Southwest 433 498 43,000  Level New York Center
Tue 03:06:10 PM 40.4736 -75.2753 230° Southwest 433 498 43,000  Level New York Center
Tue 03:07:10 PM 40.3869 -75.4142 231° Southwest 439 505 43,000  Level New York Center
Tue 03:08:10 PM 40.3133 -75.5344 231° Southwest 439 505 43,000  Level New York Center
Tue 03:09:10 PM 40.2353 -75.6569 230° Southwest 439 505 43,000  Level New York Center
Tue 03:10:10 PM 40.1572 -75.7792 230° Southwest 439 505 43,000  Level New York Center
Tue 03:11:10 PM 40.0814 -75.8983 230° Southwest 439 505 43,000  Level New York Center
Tue 03:12:10 PM 40.0031 -76.0200 230° Southwest 439 505 43,000  Level New York Center
Tue 03:13:10 PM 39.9228 -76.1358 228° Southwest 434 499 43,000  Level New York Center
Tue 03:14:10 PM 39.8531 -76.2467 231° Southwest 443 510 43,000  Level New York Center
Tue 03:15:39 PM 39.7294 -76.4306 229° Southwest 448 516 43,000  Level Washington Center
Tue 03:16:37 PM 39.6578 -76.5403 230° Southwest 448 516 43,000  Level Washington Center
Tue 03:17:38 PM 39.5778 -76.6603 229° Southwest 453 521 43,000  Level Washington Center
Tue 03:18:38 PM 39.4994 -76.7803 230° Southwest 453 521 43,000  Level Washington Center
Tue 03:19:39 PM 39.4169 -76.9025 229° Southwest 453 521 43,000  Level Washington Center
Tue 03:20:38 PM 39.3383 -77.0219 230° Southwest 453 521 43,000  Level Washington Center
Tue 03:21:39 PM 39.2600 -77.1383 229° Southwest 453 521 43,000  Level Washington Center
Tue 03:22:39 PM 39.1811 -77.2572 229° Southwest 453 521 43,000  Level Washington Center
Tue 03:23:37 PM 39.1025 -77.3756 229° Southwest 453 521 43,000  Level Washington Center
Tue 03:24:38 PM 39.0236 -77.4914 229° Southwest 453 521 43,000  Level Washington Center
Tue 03:25:38 PM 38.9336 -77.6250 229° Southwest 453 521 43,000  Level Washington Center
Tue 03:26:37 PM 38.8547 -77.7403 229° Southwest 448 516 43,000  Level Washington Center
Tue 03:27:37 PM 38.7667 -77.8708 229° Southwest 469 540 43,000  Level Washington Center
Tue 03:28:38 PM 38.6875 -77.9828 228° Southwest 462 532 43,000  Level Washington Center
Tue 03:29:39 PM 38.6078 -78.0997 229° Southwest 448 516 43,000  Level Washington Center
Tue 03:30:37 PM 38.5261 -78.2189 229° Southwest 448 516 43,000  Level Washington Center
Tue 03:31:38 PM 38.4442 -78.3353 228° Southwest 453 521 43,000  Level Washington Center
Tue 03:32:38 PM 38.3622 -78.4569 229° Southwest 453 521 43,000  Level Washington Center
Tue 03:33:40 PM 38.2781 -78.5753 228° Southwest 453 521 43,000  Level Washington Center
Tue 03:34:37 PM 38.2086 -78.6808 230° Southwest 448 516 43,000  Level Washington Center
Tue 03:35:38 PM 38.1156 -78.8117 228° Southwest 448 516 43,000  Level Washington Center
Tue 03:36:39 PM 38.0331 -78.9294 228° Southwest 453 521 43,000  Level Washington Center
Tue 03:37:39 PM 37.9506 -79.0469 228° Southwest 453 521 43,000  Level Washington Center
Tue 03:38:37 PM 37.8783 -79.1592 231° Southwest 453 521 43,000  Level Washington Center
Tue 03:39:37 PM 37.8094 -79.2981 238° Southwest 460 529 43,000  Level Washington Center
Tue 03:40:37 PM 37.7447 -79.4339 239° Southwest 460 529 43,000  Level Washington Center
Tue 03:41:39 PM 37.6669 -79.5822 237° Southwest 465 535 43,000  Level Washington Center
Tue 03:42:39 PM 37.5953 -79.7225 237° Southwest 465 535 43,000  Level Washington Center
Tue 03:43:39 PM 37.5322 -79.8553 239° Southwest 479 551 43,000  Level Washington Center
Tue 03:44:37 PM 37.4606 -79.9928 237° Southwest 485 558 43,000  Level Washington Center
Tue 03:45:57 PM 37.3633 -80.1772 236° Southwest 459 528 43,000  Level Atlanta Center
Tue 03:46:57 PM 37.2906 -80.3189 237° Southwest 472 543 43,000  Level Atlanta Center
Tue 03:47:57 PM 37.2194 -80.4553 237° Southwest 478 550 43,000  Level Atlanta Center
Tue 03:48:57 PM 37.1406 -80.6072 237° Southwest 478 550 43,000  Level Atlanta Center
Tue 03:49:57 PM 37.0672 -80.7508 237° Southwest 484 557 43,000  Level Atlanta Center
Tue 03:50:57 PM 36.9981 -80.8889 238° Southwest 484 557 43,000  Level Atlanta Center
Tue 03:51:57 PM 36.9264 -81.0294 237° Southwest 484 557 43,000  Level Atlanta Center
Tue 03:52:57 PM 36.8647 -81.1536 238° Southwest 484 557 43,000  Level Atlanta Center
Tue 03:53:57 PM 36.7908 -81.2886 236° Southwest 484 557 43,000  Level Atlanta Center
Tue 03:54:57 PM 36.7189 -81.4414 240° Southwest 477 549 43,000  Level Atlanta Center
Tue 03:55:57 PM 36.6447 -81.5808 236° Southwest 472 543 43,000  Level Atlanta Center
Tue 03:56:57 PM 36.5742 -81.7122 236° Southwest 472 543 43,000  Level Atlanta Center
Tue 03:57:57 PM 36.5061 -81.8536 239° Southwest 477 549 43,000  Level Atlanta Center
Tue 03:58:57 PM 36.4292 -81.9925 235° Southwest 487 560 43,000  Level Atlanta Center
Tue 03:59:57 PM 36.3564 -82.1336 237° Southwest 487 560 43,000  Level Atlanta Center
Tue 04:00:57 PM 36.2894 -82.2589 236° Southwest 487 560 43,000  Level Atlanta Center
Tue 04:01:57 PM 36.2161 -82.3917 236° Southwest 487 560 43,000  Level Atlanta Center
Tue 04:02:57 PM 36.1450 -82.5319 238° Southwest 487 560 43,000  Level Atlanta Center
Tue 04:03:57 PM 36.0694 -82.6694 236° Southwest 487 560 43,000  Level Atlanta Center
Tue 04:04:57 PM 35.9958 -82.8094 237° Southwest 487 560 43,000  Level Atlanta Center
Tue 04:05:57 PM 35.9219 -82.9439 236° Southwest 487 560 43,000  Level Atlanta Center
Tue 04:06:57 PM 35.8481 -83.0831 237° Southwest 487 560 43,000  Level Atlanta Center
Tue 04:07:57 PM 35.7678 -83.2350 237° Southwest 487 560 43,000  Level Atlanta Center
Tue 04:08:57 PM 35.6914 -83.3714 235° Southwest 487 560 43,000  Level Atlanta Center
Tue 04:09:57 PM 35.6169 -83.5125 237° Southwest 487 560 43,000  Level Atlanta Center
Tue 04:10:57 PM 35.5425 -83.6458 236° Southwest 487 560 43,000  Level Atlanta Center
Tue 04:11:57 PM 35.4678 -83.7836 236° Southwest 487 560 43,000  Level Atlanta Center
Tue 04:12:57 PM 35.3906 -83.9217 236° Southwest 487 560 43,000  Level Atlanta Center
Tue 04:13:57 PM 35.3136 -84.0592 236° Southwest 487 560 43,000  Level Atlanta Center
Tue 04:14:57 PM 35.2361 -84.1964 235° Southwest 492 566 43,000  Level Atlanta Center
Tue 04:15:57 PM 35.1608 -84.3333 236° Southwest 492 566 43,000  Level Atlanta Center
Tue 04:16:57 PM 35.0936 -84.4550 236° Southwest 487 560 43,000  Level Atlanta Center
Tue 04:17:57 PM 35.0161 -84.5917 235° Southwest 487 560 43,000  Level Atlanta Center
Tue 04:18:57 PM 34.9361 -84.7278 234° Southwest 487 560 43,000  Level Atlanta Center
Tue 04:19:57 PM 34.8600 -84.8639 236° Southwest 487 560 43,000  Level Atlanta Center
Tue 04:20:57 PM 34.7839 -84.9997 236° Southwest 487 560 43,000  Level Atlanta Center
Tue 04:21:57 PM 34.7056 -85.1378 235° Southwest 487 560 43,000  Level Atlanta Center
Tue 04:22:57 PM 34.6272 -85.2731 235° Southwest 487 560 43,000  Level Atlanta Center
Tue 04:23:57 PM 34.5506 -85.4058 235° Southwest 492 566 43,000  Level Atlanta Center
Tue 04:24:57 PM 34.4717 -85.5431 235° Southwest 492 566 43,000  Level Atlanta Center
Tue 04:25:57 PM 34.3928 -85.6775 235° Southwest 492 566 43,000  Level Atlanta Center
Tue 04:26:57 PM 34.3219 -85.8119 237° Southwest 487 560 43,000  Level Atlanta Center
Tue 04:27:57 PM 34.2389 -85.9383 232° Southwest 487 560 43,000  Level Atlanta Center
Tue 04:28:57 PM 34.1594 -86.0772 235° Southwest 492 566 43,000  Level Atlanta Center
Tue 04:29:57 PM 34.0778 -86.2108 234° Southwest 498 573 43,000  Level Atlanta Center
Tue 04:30:57 PM 34.0003 -86.3442 235° Southwest 498 573 43,000  Level Atlanta Center
Tue 04:31:57 PM 33.9619 -86.4933 253° West 478 550 43,000  Level Atlanta Center
Tue 04:32:57 PM 33.9294 -86.6500 256° West 478 550 43,000  Level Atlanta Center
Tue 04:33:57 PM 33.8925 -86.8042 254° West 478 550 43,000  Level Atlanta Center
Tue 04:34:57 PM 33.8578 -86.9606 255° West 483 556 43,000  Level Atlanta Center
Tue 04:35:57 PM 33.8206 -87.1117 254° West 483 556 43,000  Level Atlanta Center
Tue 04:38:23 PM 33.7264 -87.4900 253° West 495 570 43,000  Level Memphis Center
Tue 04:39:23 PM 33.6861 -87.6461 253° West 495 570 43,000  Level Memphis Center
Tue 04:40:23 PM 33.6517 -87.8044 255° West 495 570 43,000  Level Memphis Center
Tue 04:41:23 PM 33.6131 -87.9578 253° West 495 570 43,000  Level Memphis Center
Tue 04:42:23 PM 33.5806 -88.1131 256° West 484 557 43,000  Level Memphis Center
Tue 04:43:23 PM 33.5456 -88.2686 255° West 484 557 43,000  Level Memphis Center
Tue 04:44:23 PM 33.5108 -88.4389 256° West 479 551 43,000  Level Memphis Center
Tue 04:45:23 PM 33.4631 -88.5867 249° West 479 551 43,000  Level Memphis Center
Tue 04:46:23 PM 33.4150 -88.7419 250° West 485 558 43,000  Level Memphis Center
Tue 04:47:23 PM 33.3667 -88.8897 249° West 491 565 43,000  Level Memphis Center
Tue 04:48:23 PM 33.3183 -89.0397 249° West 491 565 43,000  Level Memphis Center
Tue 04:49:23 PM 33.2697 -89.1919 249° West 491 565 43,000  Level Memphis Center
Tue 04:50:23 PM 33.2189 -89.3417 248° West 491 565 43,000  Level Memphis Center
Tue 04:51:23 PM 33.1761 -89.4986 252° West 491 565 43,000  Level Memphis Center
Tue 04:52:23 PM 33.1356 -89.6528 253° West 491 565 43,000  Level Memphis Center
Tue 04:53:23 PM 33.0986 -89.7944 253° West 491 565 43,000  Level Memphis Center
Tue 04:54:23 PM 33.0553 -89.9533 252° West 498 573 43,000  Level Memphis Center
Tue 04:55:23 PM 33.0119 -90.1094 252° West 504 580 43,000  Level Memphis Center
Tue 04:56:23 PM 32.9725 -90.2631 253° West 498 573 43,000  Level Memphis Center
Tue 04:57:23 PM 32.9267 -90.4339 252° West 498 573 43,000  Level Memphis Center
Tue 04:58:23 PM 32.8889 -90.5897 254° West 498 573 43,000  Level Memphis Center
Tue 04:59:23 PM 32.8489 -90.7456 253° West 498 573 43,000  Level Memphis Center
Tue 05:00:23 PM 32.8086 -90.9011 253° West 498 573 43,000  Level Memphis Center
Tue 05:01:23 PM 32.7703 -91.0564 254° West 498 573 43,000  Level Memphis Center
Tue 05:03:20 PM 32.6975 -91.3461 253° West 503 579 43,000 -237 Level Fort Worth Center
Tue 05:04:20 PM 32.6569 -91.5019 253° West 503 579 42,300 -1,100 Descending Fort Worth Center
Tue 05:05:20 PM 32.6161 -91.6575 253° West 503 579 40,800 -1,500 Descending Fort Worth Center
Tue 05:06:20 PM 32.5258 -91.7839 230° Southwest 496 571 39,300 -1,500 Descending Fort Worth Center
Tue 05:07:20 PM 32.4072 -91.8872 216° Southwest 496 571 37,800 -1,548 Descending Fort Worth Center
Tue 05:07:53 PM 32.3433 -91.9428 216° Southwest 523 602 36,900 -1,500 Descending Houston Center
Tue 05:08:56 PM 32.2264 -92.0469 217° Southwest 526 605 35,400 -1,584 Descending Houston Center
Tue 05:09:58 PM 32.0867 -92.1722 217° Southwest 527 606 33,600 -1,597 Descending Houston Center
Tue 05:11:00 PM 31.9703 -92.2756 217° Southwest 525 604 32,100 -1,452 Descending Houston Center
Tue 05:12:02 PM 31.8519 -92.3806 217° Southwest 531 611 30,600 -1,161 Descending Houston Center
Tue 05:13:04 PM 31.7325 -92.4861 217° Southwest 538 619 29,700 -823 Descending Houston Center
Tue 05:14:06 PM 31.6167 -92.5894 217° Southwest 533 613 28,900 -677 Descending Houston Center
Tue 05:15:08 PM 31.4792 -92.7117 217° Southwest 527 606 28,300 -435 Descending Houston Center
Tue 05:16:10 PM 31.3644 -92.8094 216° Southwest 522 601 28,000 -871 Descending Houston Center
Tue 05:17:12 PM 31.2511 -92.9078 217° Southwest 517 595 26,500 -1,452 Descending Houston Center
Tue 05:18:14 PM 31.1419 -93.0011 216° Southwest 495 570 25,000 -1,632 Descending Houston Center
Tue 05:19:17 PM 31.0422 -93.0875 217° Southwest 458 527 23,100 -2,064 Descending Houston Center
Tue 05:20:19 PM 30.9108 -93.1567 204° Southwest 435 501 20,700 -2,274 Descending Houston Center
Tue 05:21:21 PM 30.8067 -93.2011 200° South 405 466 18,400 -2,613 Descending Houston Center
Tue 05:22:23 PM 30.7047 -93.2414 199° South 390 449 15,300 -3,000 Descending Houston Center
Tue 05:23:25 PM 30.6025 -93.2783 197° South 386 444 12,200 -2,226 Descending Houston Center
Tue 05:24:27 PM 30.5114 -93.3117 197° South 349 402 10,700 -2,371 Descending Houston Center
Tue 05:25:29 PM 30.4153 -93.3556 201° Southwest 312 359 7,300 -2,727 Descending Houston Center
Tue 05:26:17 PM 30.3711 -93.4033 223° Southwest 289 333 5,700 -1,596 Descending Houston Center
Tue 05:27:18 PM 30.3358 -93.4883 244° Southwest 269 310 4,400 -872 Descending Houston Center
Tue 05:28:14 PM 30.3042 -93.5461 238° Southwest 236 272 4,000 -207 Descending Houston Center
Tue 05:29:14 PM 30.2606 -93.6128 233° Southwest 245 282 4,000  Level Houston Center
Tue 05:30:15 PM 30.2169 -93.6769 232° Southwest 244 281 4,000  Level Houston Center
Tue 05:31:17 PM 30.1883 -93.7464 245° Southwest 243 280 4,000 -195 Level Houston Center
Tue 05:32:18 PM 30.1442 -93.8081 230° Southwest 243 280 3,600 -492 Descending Houston Center
Tue 05:33:19 PM 30.1156 -93.8772 244° Southwest 221 254 3,000 -590 Descending Houston Center
Tue 05:34:20 PM 30.0922 -93.9361 245° Southwest 201 231 2,400 -462 Descending Houston Center
Tue 05:35:16 PM 30.0683 -93.9925 244° Southwest 201 231 2,100 -337 Descending Houston Center
Tue 05:35:49 PM 30.0586 -94.0144 243° Southwest 209 241 1,900 -250 Descending Houston Center
Tue 05:36:52 PM 30.0281 -94.0669 236° Southwest 200 230 1,700 -308 Descending Houston Center
Tue 05:38:25 PM 29.9800 -94.0742 187° South 127 146 1,100 -527 Descending Houston Center
Tue 05:39:20 PM 29.9622 -94.0428 123° Southeast 127 146 400 -764 Descending Houston Center
Tue 05:41:00 PM 29.9500 -94.0167 90° East  Level FlightAware Approximate

Login

Don't have an account? Register now (free) for customized features, flight alerts, and more!